• Join FlightAware (Why Join?)
  • Login
  • US Flag 
01:55PM EDT


 

Airport Tracker/Info


-or-


 

Live Flight TrackerFlight Track Log ✈ AWE1940 ✈ 10-May-2013 ✈ KIAH - KCLT

Flight Track Log - Related Links

Times and Time Zones

All times are in EDT time to prevent confusion due to time zone crossing. See the AWE1940 flight status page for this flight to view local times or setup timezone preferences in your user account.

Time Position Orientation Groundspeed Altitude Reporting Facility
EDT Latitude Longitude Course Direction KTS MPH feet Rate Location/Type
07:48PM 29.9550 -95.3394 90° East 221 254 900  Level Houston Center
07:49PM 29.9364 -95.2503 104° East 250 288 3,600 1,860 Climbing Houston Center
07:50PM 29.9414 -95.1969 84° East 253 291 5,000 2,400 Climbing Houston Center
07:51PM 29.9834 -94.7715 90° East  Level FlightAware Approximate
07:51PM 29.9478 -95.0869 86° East 284 327 8,200  Level Houston Center
07:51PM 29.9486 -95.0653 87° East 293 337 8,700 2,100 Climbing Houston Center
07:52PM 29.9833 -94.6310 90° East  Level FlightAware Approximate
07:52PM 29.9547 -94.9881 85° East 304 350 10,400  Level Houston Center
07:53PM 29.9833 -94.4905 90° East  Level FlightAware Approximate
07:53PM 29.9619 -94.8744 86° East 348 400 11,500  Level Houston Center
07:54PM 29.9703 -94.7481 86° East 386 444 13,800 2,160 Climbing Houston Center
07:55PM 29.9794 -94.6189 85° East 399 459 15,900 1,680 Climbing Houston Center
07:56PM 29.9875 -94.4797 86° East 425 489 17,300 1,800 Climbing Houston Center
07:57PM 29.9942 -94.3436 87° East 442 509 19,700 2,220 Climbing Houston Center
07:58PM 30.0125 -94.1758 83° East 442 509 21,900 1,620 Climbing Houston Center
07:59PM 30.0317 -94.0283 81° East 459 528 23,100 1,440 Climbing Houston Center
08:00PM 30.0500 -93.8792 82° East 470 541 24,900 1,380 Climbing Houston Center
08:01PM 30.0689 -93.7283 82° East 476 548 26,000 1,080 Climbing Houston Center
08:02PM 30.0869 -93.5728 82° East 488 562 27,200 1,020 Climbing Houston Center
08:03PM 30.1058 -93.4139 82° East 504 580 28,200 1,260 Climbing Houston Center
08:04PM 30.1278 -93.2211 82° East 512 589 29,800 1,260 Climbing Houston Center
08:05PM 30.1489 -93.0628 81° East 507 583 30,900 960 Climbing Houston Center
08:06PM 30.1817 -92.9064 76° East 506 582 31,800 900 Climbing Houston Center
08:07PM 30.2517 -92.7664 60° Northeast 509 586 32,800 540 Climbing Houston Center
08:08PM 30.3272 -92.6333 57° Northeast 502 578 33,000 60 Climbing Houston Center
08:09PM 30.4025 -92.4989 57° Northeast 500 575 33,000  Level Houston Center
08:10PM 30.4939 -92.3347 57° Northeast 500 575 33,000  Level Houston Center
08:11PM 30.5683 -92.2006 57° Northeast 499 574 33,000  Level Houston Center
08:12PM 30.6422 -92.0669 57° Northeast 496 571 33,000  Level Houston Center
08:13PM 30.7153 -91.9339 57° Northeast 494 568 33,000  Level Houston Center
08:14PM 30.7889 -91.8011 57° Northeast 492 566 33,000  Level Houston Center
08:15PM 30.8631 -91.6686 57° Northeast 492 566 33,000  Level Houston Center
08:16PM 30.9364 -91.5361 57° Northeast 491 565 33,000  Level Houston Center
08:17PM 31.0211 -91.3811 57° Northeast 488 562 33,000  Level Houston Center
08:19PM 31.0931 -91.2478 58° Northeast 487 560 33,000 -60 Level Houston Center
08:20PM 31.1667 -91.1144 57° Northeast 487 560 32,900  Descending Houston Center
08:21PM 31.2375 -90.9803 58° Northeast 485 558 33,000  Climbing Houston Center
08:22PM 31.3094 -90.8489 57° Northeast 482 555 33,000  Level Houston Center
08:23PM 31.3794 -90.7178 58° Northeast 477 549 33,000  Level Houston Center
08:24PM 31.4494 -90.5864 58° Northeast 475 547 33,000  Level Houston Center
08:25PM 31.5339 -90.4283 58° Northeast 476 548 33,000  Level Houston Center
08:26PM 31.6042 -90.2958 58° Northeast 477 549 33,000  Level Houston Center
08:27PM 31.6753 -90.1619 58° Northeast 480 552 33,000  Level Houston Center
08:27PM 31.7092 -90.0986 58° Northeast 479 551 33,000  Level Memphis Center
08:28PM 31.7797 -89.9614 59° Northeast 479 551 33,000  Level Memphis Center
08:29PM 31.8503 -89.8292 58° Northeast 479 551 33,000  Level Memphis Center
08:30PM 31.9228 -89.6892 59° Northeast 479 551 33,000  Level Memphis Center
08:31PM 31.9950 -89.5514 58° Northeast 479 551 33,000  Level Memphis Center
08:32PM 32.0733 -89.4011 58° Northeast 487 560 33,000  Level Memphis Center
08:33PM 32.1431 -89.2656 59° Northeast 487 560 33,000  Level Memphis Center
08:34PM 32.2128 -89.1272 59° Northeast 487 560 33,000  Level Memphis Center
08:35PM 32.2822 -88.9886 59° Northeast 487 560 33,000  Level Memphis Center
08:36PM 32.3558 -88.8522 57° Northeast 487 560 33,000  Level Memphis Center
08:37PM 32.4231 -88.7133 60° Northeast 487 560 33,000  Level Memphis Center
08:38PM 32.4878 -88.5692 62° Northeast 487 560 33,000  Level Memphis Center
08:39PM 32.5608 -88.4225 59° Northeast 494 568 33,000  Level Memphis Center
08:41PM 32.6931 -88.1336 61° Northeast 495 570 33,000  Level Atlanta Center
08:42PM 32.7539 -87.9931 63° Northeast 501 577 33,000  Level Atlanta Center
08:43PM 32.8233 -87.8478 60° Northeast 506 582 33,000  Level Atlanta Center
08:44PM 32.8903 -87.7025 61° Northeast 506 582 33,000  Level Atlanta Center
08:45PM 32.9550 -87.5542 62° Northeast 506 582 33,000  Level Atlanta Center
08:46PM 33.0219 -87.4056 62° Northeast 506 582 33,000  Level Atlanta Center
08:47PM 33.0886 -87.2569 62° Northeast 506 582 33,000  Level Atlanta Center
08:48PM 33.1636 -87.0911 62° Northeast 511 588 33,000  Level Atlanta Center
08:49PM 33.2233 -86.9589 62° Northeast 503 579 33,000  Level Atlanta Center
08:50PM 33.2650 -86.7742 75° East 503 579 33,000  Level Atlanta Center
08:51PM 33.2850 -86.6256 81° East 493 567 33,000  Level Atlanta Center
08:52PM 33.3117 -86.4450 80° East 505 581 33,000  Level Atlanta Center
08:53PM 33.3417 -86.2817 78° East 505 581 33,000  Level Atlanta Center
08:54PM 33.3697 -86.1158 79° East 505 581 33,000  Level Atlanta Center
08:55PM 33.3975 -85.9497 79° East 505 581 33,000  Level Atlanta Center
08:56PM 33.4183 -85.8158 79° East 505 581 33,000  Level Atlanta Center
08:57PM 33.4458 -85.6397 79° East 505 581 33,000  Level Atlanta Center
08:58PM 33.4750 -85.4758 78° East 505 581 33,000  Level Atlanta Center
08:59PM 33.5019 -85.2919 80° East 505 581 33,000  Level Atlanta Center
09:00PM 33.5286 -85.1253 79° East 505 581 33,000  Level Atlanta Center
09:01PM 33.5508 -84.9561 81° East 505 581 33,000  Level Atlanta Center
09:02PM 33.5750 -84.7867 80° East 505 581 33,000  Level Atlanta Center
09:03PM 33.6031 -84.6200 79° East 505 581 33,000  Level Atlanta Center
09:04PM 33.6244 -84.4531 81° East 505 581 33,000  Level Atlanta Center
09:05PM 33.6644 -84.2908 73° East 505 581 33,000  Level Atlanta Center
09:06PM 33.7150 -84.1261 70° East 506 582 33,000  Level Atlanta Center
09:07PM 33.7608 -83.9664 71° East 511 588 33,000  Level Atlanta Center
09:08PM 33.8067 -83.8039 71° East 511 588 33,000  Level Atlanta Center
09:09PM 33.8519 -83.6411 71° East 506 582 33,000 -540 Level Atlanta Center
09:10PM 33.8972 -83.4781 71° East 501 577 32,000 -1,020 Descending Atlanta Center
09:11PM 33.9403 -83.3228 71° East 495 570 31,000 -1,020 Descending Atlanta Center
09:12PM 33.9811 -83.1669 72° East 495 570 30,000 -960 Descending Atlanta Center
09:13PM 34.0236 -83.0136 71° East 485 558 29,100 -900 Descending Atlanta Center
09:14PM 34.0661 -82.8603 71° East 485 558 28,200 -1,020 Descending Atlanta Center
09:15PM 34.1083 -82.7067 72° East 485 558 27,100 -1,080 Descending Atlanta Center
09:16PM 34.1611 -82.5653 66° East 473 544 26,100 -1,020 Descending Atlanta Center
09:17PM 34.2286 -82.4483 55° Northeast 445 512 25,100 -1,080 Descending Atlanta Center
09:18PM 34.2978 -82.3264 56° Northeast 434 499 24,000 -1,020 Descending Atlanta Center
09:19PM 34.3628 -82.2069 57° Northeast 428 493 23,100 -1,200 Descending Atlanta Center
09:20PM 34.4300 -82.0869 56° Northeast 428 493 21,600 -1,800 Descending Atlanta Center
09:21PM 34.4947 -81.9747 55° Northeast 423 487 19,500 -2,100 Descending Atlanta Center
09:22PM 34.5556 -81.8622 57° Northeast 411 473 17,400 -2,040 Descending Atlanta Center
09:23PM 34.5778 -81.8211 57° Northeast 399 459 16,700 -2,040 Descending Atlanta Center
09:23PM 34.6161 -81.7544 55° Northeast 394 453 15,400 -2,280 Descending Atlanta Center
09:23PM 34.6161 -81.7544 55° Northeast 401 461 15,300 -2,100 Descending Atlanta Center
09:24PM 34.6728 -81.6544 55° Northeast 396 456 13,300 -1,680 Descending Atlanta Center
09:25PM 34.7392 -81.5364 56° Northeast 367 422 12,000 -720 Descending Atlanta Center
09:26PM 34.7942 -81.4664 46° Northeast 351 404 11,900 -60 Descending Atlanta Center
09:27PM 34.8569 -81.3836 47° Northeast 332 382 11,900 -660 Level Atlanta Center
09:28PM 34.9200 -81.3056 45° Northeast 327 376 10,600 -1,440 Descending Atlanta Center
09:29PM 34.9889 -81.2144 47° Northeast 318 366 9,000 -720 Descending Atlanta Center
09:30PM 35.0536 -81.1311 46° Northeast 312 359 9,100  Climbing Atlanta Center
09:31PM 35.1064 -81.0683 44° Northeast 311 358 9,100 -120 Level Atlanta Center
09:32PM 35.1897 -81.0653 North 281 323 8,900 -960 Descending Atlanta Center
09:33PM 35.2714 -81.0750 354° North 247 284 7,100 -1,680 Descending Atlanta Center
09:34PM 35.3406 -81.0828 355° North 253 291 5,400 -1,500 Descending Atlanta Center
09:35PM 35.4117 -81.0878 357° North 251 289 4,100 -660 Descending Atlanta Center
09:36PM 35.4739 -81.0756 North 245 282 4,100  Level Atlanta Center
09:37PM 35.4575 -81.0047 106° East 224 258 4,100 -60 Level Atlanta Center
09:38PM 35.4067 -80.9708 151° Southeast 209 241 4,000 -480 Descending Atlanta Center
09:39PM 35.3567 -80.9703 179° South 168 193 3,200 -840 Descending Atlanta Center